sensor_id;sensor_type;location;lat;lon;timestamp;temperature;humidity
10911;DHT22;5508;49.150;11.030;2023-06-10T00:03:00;12.10;99.90
10911;DHT22;5508;49.150;11.030;2023-06-10T00:06:02;12.10;99.90
10911;DHT22;5508;49.150;11.030;2023-06-10T00:09:03;12.00;99.90
10911;DHT22;5508;49.150;11.030;2023-06-10T00:12:05;12.00;99.90
10911;DHT22;5508;49.150;11.030;2023-06-10T00:15:07;11.90;99.90
10911;DHT22;5508;49.150;11.030;2023-06-10T00:18:08;12.00;99.90
10911;DHT22;5508;49.150;11.030;2023-06-10T00:21:10;12.00;99.90
10911;DHT22;5508;49.150;11.030;2023-06-10T00:24:13;11.90;99.90
10911;DHT22;5508;49.150;11.030;2023-06-10T00:27:14;11.80;99.90
10911;DHT22;5508;49.150;11.030;2023-06-10T00:30:14;11.70;99.90
10911;DHT22;5508;49.150;11.030;2023-06-10T00:33:15;11.70;99.90
10911;DHT22;5508;49.150;11.030;2023-06-10T00:36:16;11.70;99.90
10911;DHT22;5508;49.150;11.030;2023-06-10T00:39:16;11.60;99.90
10911;DHT22;5508;49.150;11.030;2023-06-10T00:42:17;11.50;99.90
10911;DHT22;5508;49.150;11.030;2023-06-10T00:45:18;11.40;99.90
10911;DHT22;5508;49.150;11.030;2023-06-10T00:48:19;11.30;99.90
10911;DHT22;5508;49.150;11.030;2023-06-10T00:51:20;11.40;99.90
10911;DHT22;5508;49.150;11.030;2023-06-10T00:54:21;11.40;99.90
10911;DHT22;5508;49.150;11.030;2023-06-10T00:57:22;11.40;99.90
10911;DHT22;5508;49.150;11.030;2023-06-10T01:00:22;11.40;99.90
10911;DHT22;5508;49.150;11.030;2023-06-10T01:03:23;11.30;99.90
10911;DHT22;5508;49.150;11.030;2023-06-10T01:06:46;11.30;99.90
10911;DHT22;5508;49.150;11.030;2023-06-10T01:10:02;11.20;99.90
10911;DHT22;5508;49.150;11.030;2023-06-10T01:13:10;11.20;99.90
10911;DHT22;5508;49.150;11.030;2023-06-10T01:16:12;11.20;99.90
10911;DHT22;5508;49.150;11.030;2023-06-10T01:19:13;11.20;99.90
10911;DHT22;5508;49.150;11.030;2023-06-10T01:22:15;11.20;99.90
10911;DHT22;5508;49.150;11.030;2023-06-10T01:25:17;11.10;99.90
10911;DHT22;5508;49.150;11.030;2023-06-10T01:28:25;11.10;99.90
10911;DHT22;5508;49.150;11.030;2023-06-10T01:31:43;11.10;99.90
10911;DHT22;5508;49.150;11.030;2023-06-10T01:34:46;11.10;99.90
10911;DHT22;5508;49.150;11.030;2023-06-10T01:37:48;11.10;99.90
10911;DHT22;5508;49.150;11.030;2023-06-10T01:40:53;11.00;99.90
10911;DHT22;5508;49.150;11.030;2023-06-10T01:43:55;10.80;99.90
10911;DHT22;5508;49.150;11.030;2023-06-10T01:46:55;10.70;99.90
10911;DHT22;5508;49.150;11.030;2023-06-10T01:49:56;10.70;99.90
10911;DHT22;5508;49.150;11.030;2023-06-10T01:52:58;10.70;99.90
10911;DHT22;5508;49.150;11.030;2023-06-10T01:55:58;10.60;99.90
10911;DHT22;5508;49.150;11.030;2023-06-10T01:58:59;10.70;99.90
10911;DHT22;5508;49.150;11.030;2023-06-10T02:02:00;10.60;99.90
10911;DHT22;5508;49.150;11.030;2023-06-10T02:05:00;10.60;99.90
10911;DHT22;5508;49.150;11.030;2023-06-10T02:08:01;10.60;99.90
10911;DHT22;5508;49.150;11.030;2023-06-10T02:11:01;10.60;99.90
10911;DHT22;5508;49.150;11.030;2023-06-10T02:14:02;10.60;99.90
10911;DHT22;5508;49.150;11.030;2023-06-10T02:17:03;10.50;99.90
10911;DHT22;5508;49.150;11.030;2023-06-10T02:20:05;10.50;99.90
10911;DHT22;5508;49.150;11.030;2023-06-10T02:23:07;10.40;99.90
10911;DHT22;5508;49.150;11.030;2023-06-10T02:26:08;10.40;99.90
10911;DHT22;5508;49.150;11.030;2023-06-10T02:29:08;10.40;99.90
10911;DHT22;5508;49.150;11.030;2023-06-10T02:32:09;10.40;99.90
10911;DHT22;5508;49.150;11.030;2023-06-10T02:35:10;10.40;99.90
10911;DHT22;5508;49.150;11.030;2023-06-10T02:38:12;10.40;99.90
10911;DHT22;5508;49.150;11.030;2023-06-10T02:41:13;10.40;99.90
10911;DHT22;5508;49.150;11.030;2023-06-10T02:44:13;10.30;99.90
10911;DHT22;5508;49.150;11.030;2023-06-10T02:47:14;10.30;99.90
10911;DHT22;5508;49.150;11.030;2023-06-10T02:50:15;10.20;99.90
10911;DHT22;5508;49.150;11.030;2023-06-10T02:53:16;10.20;99.90
10911;DHT22;5508;49.150;11.030;2023-06-10T02:56:17;10.20;99.90
10911;DHT22;5508;49.150;11.030;2023-06-10T02:59:18;10.20;99.90
10911;DHT22;5508;49.150;11.030;2023-06-10T03:02:18;10.20;99.90
10911;DHT22;5508;49.150;11.030;2023-06-10T03:05:19;10.20;99.90
10911;DHT22;5508;49.150;11.030;2023-06-10T03:08:20;10.10;99.90
10911;DHT22;5508;49.150;11.030;2023-06-10T03:11:20;10.10;99.90
10911;DHT22;5508;49.150;11.030;2023-06-10T03:14:21;10.10;99.90
10911;DHT22;5508;49.150;11.030;2023-06-10T03:17:21;10.20;99.90
10911;DHT22;5508;49.150;11.030;2023-06-10T03:20:22;10.20;99.90
10911;DHT22;5508;49.150;11.030;2023-06-10T03:23:23;10.20;99.90
10911;DHT22;5508;49.150;11.030;2023-06-10T03:26:24;10.20;99.90
10911;DHT22;5508;49.150;11.030;2023-06-10T03:29:24;10.20;99.90
10911;DHT22;5508;49.150;11.030;2023-06-10T03:32:26;10.20;99.90
10911;DHT22;5508;49.150;11.030;2023-06-10T03:35:26;10.20;99.90
10911;DHT22;5508;49.150;11.030;2023-06-10T03:38:27;10.20;99.90
10911;DHT22;5508;49.150;11.030;2023-06-10T03:41:27;10.20;99.90
10911;DHT22;5508;49.150;11.030;2023-06-10T03:44:28;10.30;99.90
10911;DHT22;5508;49.150;11.030;2023-06-10T03:47:38;10.30;99.90
10911;DHT22;5508;49.150;11.030;2023-06-10T03:50:40;10.40;99.90
10911;DHT22;5508;49.150;11.030;2023-06-10T03:53:41;10.50;99.90
10911;DHT22;5508;49.150;11.030;2023-06-10T03:56:42;10.60;99.90
10911;DHT22;5508;49.150;11.030;2023-06-10T03:59:42;10.80;99.90
10911;DHT22;5508;49.150;11.030;2023-06-10T04:02:43;10.80;99.90
10911;DHT22;5508;49.150;11.030;2023-06-10T04:05:47;10.90;99.90
10911;DHT22;5508;49.150;11.030;2023-06-10T04:08:48;11.00;99.90
10911;DHT22;5508;49.150;11.030;2023-06-10T04:11:49;11.10;99.90
10911;DHT22;5508;49.150;11.030;2023-06-10T04:14:49;11.20;99.90
10911;DHT22;5508;49.150;11.030;2023-06-10T04:17:51;11.30;99.90
10911;DHT22;5508;49.150;11.030;2023-06-10T04:20:51;11.40;99.90
10911;DHT22;5508;49.150;11.030;2023-06-10T04:23:52;11.50;99.90
10911;DHT22;5508;49.150;11.030;2023-06-10T04:26:53;11.60;99.90
10911;DHT22;5508;49.150;11.030;2023-06-10T04:29:53;11.80;99.90
10911;DHT22;5508;49.150;11.030;2023-06-10T04:32:54;11.90;99.90
10911;DHT22;5508;49.150;11.030;2023-06-10T04:35:55;11.90;99.90
10911;DHT22;5508;49.150;11.030;2023-06-10T04:38:56;11.90;99.90
10911;DHT22;5508;49.150;11.030;2023-06-10T04:41:56;11.90;99.90
10911;DHT22;5508;49.150;11.030;2023-06-10T04:44:57;12.00;99.90
10911;DHT22;5508;49.150;11.030;2023-06-10T04:47:58;12.10;99.90
10911;DHT22;5508;49.150;11.030;2023-06-10T04:50:59;12.20;99.90
10911;DHT22;5508;49.150;11.030;2023-06-10T04:53:59;12.30;99.90
10911;DHT22;5508;49.150;11.030;2023-06-10T04:57:04;12.50;99.90
10911;DHT22;5508;49.150;11.030;2023-06-10T05:00:07;12.70;99.90
10911;DHT22;5508;49.150;11.030;2023-06-10T05:03:08;12.90;99.90
10911;DHT22;5508;49.150;11.030;2023-06-10T05:06:09;13.00;99.90
10911;DHT22;5508;49.150;11.030;2023-06-10T05:09:10;13.10;99.90
10911;DHT22;5508;49.150;11.030;2023-06-10T05:12:10;13.20;99.90
10911;DHT22;5508;49.150;11.030;2023-06-10T05:15:11;13.40;99.90
10911;DHT22;5508;49.150;11.030;2023-06-10T05:18:12;13.60;99.90
10911;DHT22;5508;49.150;11.030;2023-06-10T05:21:13;13.80;99.90
10911;DHT22;5508;49.150;11.030;2023-06-10T05:24:13;13.90;99.90
10911;DHT22;5508;49.150;11.030;2023-06-10T05:27:14;14.00;99.90
10911;DHT22;5508;49.150;11.030;2023-06-10T05:30:15;14.20;99.70
10911;DHT22;5508;49.150;11.030;2023-06-10T05:33:17;14.50;99.90
10911;DHT22;5508;49.150;11.030;2023-06-10T05:36:17;14.70;99.20
10911;DHT22;5508;49.150;11.030;2023-06-10T05:39:18;15.00;97.60
10911;DHT22;5508;49.150;11.030;2023-06-10T05:42:18;15.30;96.90
10911;DHT22;5508;49.150;11.030;2023-06-10T05:45:20;15.50;94.10
10911;DHT22;5508;49.150;11.030;2023-06-10T05:48:20;15.70;93.20
10911;DHT22;5508;49.150;11.030;2023-06-10T05:51:21;15.90;92.90
10911;DHT22;5508;49.150;11.030;2023-06-10T05:54:22;16.00;92.10
10911;DHT22;5508;49.150;11.030;2023-06-10T05:57:22;16.30;90.10
10911;DHT22;5508;49.150;11.030;2023-06-10T06:00:23;16.30;92.00
10911;DHT22;5508;49.150;11.030;2023-06-10T06:03:23;16.60;88.40
10911;DHT22;5508;49.150;11.030;2023-06-10T06:06:24;16.50;91.50
10911;DHT22;5508;49.150;11.030;2023-06-10T06:09:25;16.40;91.60
10911;DHT22;5508;49.150;11.030;2023-06-10T06:12:26;16.80;87.90
10911;DHT22;5508;49.150;11.030;2023-06-10T06:15:26;17.10;85.60
10911;DHT22;5508;49.150;11.030;2023-06-10T06:18:27;17.10;87.70
10911;DHT22;5508;49.150;11.030;2023-06-10T06:21:27;17.60;83.70
10911;DHT22;5508;49.150;11.030;2023-06-10T06:24:28;17.60;85.00
10911;DHT22;5508;49.150;11.030;2023-06-10T06:27:29;17.60;84.30
10911;DHT22;5508;49.150;11.030;2023-06-10T06:30:29;18.00;81.90
10911;DHT22;5508;49.150;11.030;2023-06-10T06:33:30;18.30;81.80
10911;DHT22;5508;49.150;11.030;2023-06-10T06:36:30;18.60;77.90
10911;DHT22;5508;49.150;11.030;2023-06-10T06:39:31;18.90;78.20
10911;DHT22;5508;49.150;11.030;2023-06-10T06:42:31;19.10;76.20
10911;DHT22;5508;49.150;11.030;2023-06-10T06:45:32;18.50;80.30
10911;DHT22;5508;49.150;11.030;2023-06-10T06:48:34;18.60;82.10
10911;DHT22;5508;49.150;11.030;2023-06-10T06:51:34;19.00;79.60
10911;DHT22;5508;49.150;11.030;2023-06-10T06:54:35;19.40;76.60
10911;DHT22;5508;49.150;11.030;2023-06-10T06:57:36;19.50;77.40
10911;DHT22;5508;49.150;11.030;2023-06-10T07:00:37;19.20;78.80
10911;DHT22;5508;49.150;11.030;2023-06-10T07:03:37;19.70;73.10
10911;DHT22;5508;49.150;11.030;2023-06-10T07:06:38;20.10;73.90
10911;DHT22;5508;49.150;11.030;2023-06-10T07:09:38;20.50;73.00
10911;DHT22;5508;49.150;11.030;2023-06-10T07:12:39;20.80;71.30
10911;DHT22;5508;49.150;11.030;2023-06-10T07:15:39;21.20;69.40
10911;DHT22;5508;49.150;11.030;2023-06-10T07:18:40;21.40;65.60
10911;DHT22;5508;49.150;11.030;2023-06-10T07:21:41;21.50;63.80
10911;DHT22;5508;49.150;11.030;2023-06-10T07:24:41;21.40;64.40
10911;DHT22;5508;49.150;11.030;2023-06-10T07:27:42;21.50;65.20
10911;DHT22;5508;49.150;11.030;2023-06-10T07:30:43;21.80;64.20
10911;DHT22;5508;49.150;11.030;2023-06-10T07:33:43;22.20;64.50
10911;DHT22;5508;49.150;11.030;2023-06-10T07:36:44;22.30;62.30
10911;DHT22;5508;49.150;11.030;2023-06-10T07:39:45;21.90;63.10
10911;DHT22;5508;49.150;11.030;2023-06-10T07:42:45;22.20;62.20
10911;DHT22;5508;49.150;11.030;2023-06-10T07:45:46;22.50;58.70
10911;DHT22;5508;49.150;11.030;2023-06-10T07:48:47;22.50;61.90
10911;DHT22;5508;49.150;11.030;2023-06-10T07:51:49;22.50;59.40
10911;DHT22;5508;49.150;11.030;2023-06-10T07:54:50;22.30;61.40
10911;DHT22;5508;49.150;11.030;2023-06-10T07:57:50;21.60;65.10
10911;DHT22;5508;49.150;11.030;2023-06-10T08:00:51;22.20;65.00
10911;DHT22;5508;49.150;11.030;2023-06-10T08:03:52;22.70;58.60
10911;DHT22;5508;49.150;11.030;2023-06-10T08:06:52;22.80;56.70
10911;DHT22;5508;49.150;11.030;2023-06-10T08:09:53;23.00;58.20
10911;DHT22;5508;49.150;11.030;2023-06-10T08:12:54;23.40;56.70
10911;DHT22;5508;49.150;11.030;2023-06-10T08:15:54;23.60;58.20
10911;DHT22;5508;49.150;11.030;2023-06-10T08:18:55;23.60;54.60
10911;DHT22;5508;49.150;11.030;2023-06-10T08:21:56;23.50;55.80
10911;DHT22;5508;49.150;11.030;2023-06-10T08:24:56;23.70;54.60
10911;DHT22;5508;49.150;11.030;2023-06-10T08:27:57;23.70;54.60
10911;DHT22;5508;49.150;11.030;2023-06-10T08:30:58;23.80;56.60
10911;DHT22;5508;49.150;11.030;2023-06-10T08:33:59;23.70;53.20
10911;DHT22;5508;49.150;11.030;2023-06-10T08:37:00;23.60;56.40
10911;DHT22;5508;49.150;11.030;2023-06-10T08:40:00;24.30;52.50
10911;DHT22;5508;49.150;11.030;2023-06-10T08:43:07;24.80;52.30
10911;DHT22;5508;49.150;11.030;2023-06-10T08:46:09;25.10;48.70
10911;DHT22;5508;49.150;11.030;2023-06-10T08:49:10;24.80;49.20
10911;DHT22;5508;49.150;11.030;2023-06-10T08:52:19;24.80;49.20
10911;DHT22;5508;49.150;11.030;2023-06-10T08:55:30;24.60;46.10
10911;DHT22;5508;49.150;11.030;2023-06-10T08:58:32;24.30;47.40
10911;DHT22;5508;49.150;11.030;2023-06-10T09:01:36;24.20;49.10
10911;DHT22;5508;49.150;11.030;2023-06-10T09:04:37;24.10;46.40
10911;DHT22;5508;49.150;11.030;2023-06-10T09:07:38;24.20;47.70
10911;DHT22;5508;49.150;11.030;2023-06-10T09:10:40;24.40;47.20
10911;DHT22;5508;49.150;11.030;2023-06-10T09:13:41;24.70;51.40
10911;DHT22;5508;49.150;11.030;2023-06-10T09:16:42;24.30;47.70
10911;DHT22;5508;49.150;11.030;2023-06-10T09:19:43;24.30;49.90
10911;DHT22;5508;49.150;11.030;2023-06-10T09:22:44;24.30;46.60
10911;DHT22;5508;49.150;11.030;2023-06-10T09:25:45;23.70;49.10
10911;DHT22;5508;49.150;11.030;2023-06-10T09:28:49;23.70;49.60
10911;DHT22;5508;49.150;11.030;2023-06-10T09:31:52;23.60;49.90
10911;DHT22;5508;49.150;11.030;2023-06-10T09:34:53;23.90;50.60
10911;DHT22;5508;49.150;11.030;2023-06-10T09:37:55;23.90;50.30
10911;DHT22;5508;49.150;11.030;2023-06-10T09:40:56;23.60;50.60
10911;DHT22;5508;49.150;11.030;2023-06-10T09:43:56;23.30;51.90
10911;DHT22;5508;49.150;11.030;2023-06-10T09:46:57;23.20;51.90
10911;DHT22;5508;49.150;11.030;2023-06-10T09:50:00;23.00;52.20
10911;DHT22;5508;49.150;11.030;2023-06-10T09:53:02;22.80;52.70
10911;DHT22;5508;49.150;11.030;2023-06-10T09:56:03;23.10;53.90
10911;DHT22;5508;49.150;11.030;2023-06-10T09:59:04;23.40;52.80
10911;DHT22;5508;49.150;11.030;2023-06-10T10:02:06;23.50;51.10
10911;DHT22;5508;49.150;11.030;2023-06-10T10:05:18;24.00;50.90
10911;DHT22;5508;49.150;11.030;2023-06-10T10:08:19;23.80;49.30
10911;DHT22;5508;49.150;11.030;2023-06-10T10:11:21;23.80;49.10
10911;DHT22;5508;49.150;11.030;2023-06-10T10:14:28;24.00;50.20
10911;DHT22;5508;49.150;11.030;2023-06-10T10:17:32;24.00;49.00
10911;DHT22;5508;49.150;11.030;2023-06-10T10:20:37;24.30;50.00
10911;DHT22;5508;49.150;11.030;2023-06-10T10:24:07;24.20;48.90
10911;DHT22;5508;49.150;11.030;2023-06-10T10:27:26;23.90;49.90
10911;DHT22;5508;49.150;11.030;2023-06-10T10:30:30;23.60;51.40
10911;DHT22;5508;49.150;11.030;2023-06-10T10:34:02;23.70;51.50
10911;DHT22;5508;49.150;11.030;2023-06-10T10:37:05;23.60;50.30
10911;DHT22;5508;49.150;11.030;2023-06-10T10:40:06;23.50;51.40
10911;DHT22;5508;49.150;11.030;2023-06-10T10:43:08;23.60;50.50
10911;DHT22;5508;49.150;11.030;2023-06-10T10:46:14;23.90;49.90
10911;DHT22;5508;49.150;11.030;2023-06-10T10:49:16;24.10;49.50
10911;DHT22;5508;49.150;11.030;2023-06-10T10:52:17;24.00;51.40
10911;DHT22;5508;49.150;11.030;2023-06-10T10:55:18;23.70;50.90
10911;DHT22;5508;49.150;11.030;2023-06-10T10:58:24;23.50;51.20
10911;DHT22;5508;49.150;11.030;2023-06-10T11:01:39;23.70;54.80
10911;DHT22;5508;49.150;11.030;2023-06-10T11:04:47;24.40;49.40
10911;DHT22;5508;49.150;11.030;2023-06-10T11:07:53;24.30;51.90
10911;DHT22;5508;49.150;11.030;2023-06-10T11:10:57;24.40;49.20
10911;DHT22;5508;49.150;11.030;2023-06-10T11:17:18;24.10;49.10
10911;DHT22;5508;49.150;11.030;2023-06-10T11:23:50;24.10;50.40
10911;DHT22;5508;49.150;11.030;2023-06-10T11:26:50;23.70;50.20
10911;DHT22;5508;49.150;11.030;2023-06-10T11:29:58;23.70;51.60
10911;DHT22;5508;49.150;11.030;2023-06-10T11:33:01;24.10;52.20
10911;DHT22;5508;49.150;11.030;2023-06-10T11:36:06;24.50;50.50
10911;DHT22;5508;49.150;11.030;2023-06-10T11:39:08;24.70;49.60
10911;DHT22;5508;49.150;11.030;2023-06-10T11:42:09;24.30;47.10
10911;DHT22;5508;49.150;11.030;2023-06-10T11:45:14;24.50;48.30
10911;DHT22;5508;49.150;11.030;2023-06-10T11:48:15;24.70;48.30
10911;DHT22;5508;49.150;11.030;2023-06-10T11:51:16;24.50;45.50
10911;DHT22;5508;49.150;11.030;2023-06-10T11:54:17;24.80;49.80
10911;DHT22;5508;49.150;11.030;2023-06-10T11:57:18;25.40;48.00
10911;DHT22;5508;49.150;11.030;2023-06-10T12:00:19;25.50;44.60
10911;DHT22;5508;49.150;11.030;2023-06-10T12:03:20;25.50;43.10
10911;DHT22;5508;49.150;11.030;2023-06-10T12:06:22;25.50;44.20
10911;DHT22;5508;49.150;11.030;2023-06-10T12:12:25;25.50;43.00
10911;DHT22;5508;49.150;11.030;2023-06-10T12:15:26;25.70;44.00
10911;DHT22;5508;49.150;11.030;2023-06-10T12:18:27;25.00;47.20
10911;DHT22;5508;49.150;11.030;2023-06-10T12:21:27;24.60;48.30
10911;DHT22;5508;49.150;11.030;2023-06-10T12:24:28;24.10;48.00
10911;DHT22;5508;49.150;11.030;2023-06-10T12:27:29;23.90;48.00
10911;DHT22;5508;49.150;11.030;2023-06-10T12:30:31;24.10;49.70
10911;DHT22;5508;49.150;11.030;2023-06-10T12:33:32;24.50;50.70
10911;DHT22;5508;49.150;11.030;2023-06-10T12:36:33;25.10;45.90
10911;DHT22;5508;49.150;11.030;2023-06-10T12:39:34;25.40;46.30
10911;DHT22;5508;49.150;11.030;2023-06-10T12:42:36;25.30;47.80
10911;DHT22;5508;49.150;11.030;2023-06-10T12:45:38;25.30;47.00
10911;DHT22;5508;49.150;11.030;2023-06-10T12:48:51;24.90;46.20
10911;DHT22;5508;49.150;11.030;2023-06-10T12:51:52;24.70;46.70
10911;DHT22;5508;49.150;11.030;2023-06-10T12:54:54;24.70;48.50
10911;DHT22;5508;49.150;11.030;2023-06-10T12:57:55;24.70;49.10
10911;DHT22;5508;49.150;11.030;2023-06-10T13:00:57;24.80;47.60
10911;DHT22;5508;49.150;11.030;2023-06-10T13:03:59;24.60;46.70
10911;DHT22;5508;49.150;11.030;2023-06-10T13:07:00;24.30;49.40
10911;DHT22;5508;49.150;11.030;2023-06-10T13:10:01;24.30;49.10
10911;DHT22;5508;49.150;11.030;2023-06-10T13:13:02;24.30;49.20
10911;DHT22;5508;49.150;11.030;2023-06-10T13:16:05;24.50;48.00
10911;DHT22;5508;49.150;11.030;2023-06-10T13:19:07;24.60;48.50
10911;DHT22;5508;49.150;11.030;2023-06-10T13:22:08;24.80;50.00
10911;DHT22;5508;49.150;11.030;2023-06-10T13:25:09;24.90;48.30
10911;DHT22;5508;49.150;11.030;2023-06-10T13:28:10;25.10;47.80
10911;DHT22;5508;49.150;11.030;2023-06-10T13:31:11;25.10;48.80
10911;DHT22;5508;49.150;11.030;2023-06-10T13:34:12;25.10;47.40
10911;DHT22;5508;49.150;11.030;2023-06-10T13:37:12;24.90;49.50
10911;DHT22;5508;49.150;11.030;2023-06-10T13:40:13;24.70;47.90
10911;DHT22;5508;49.150;11.030;2023-06-10T13:43:14;24.70;48.50
10911;DHT22;5508;49.150;11.030;2023-06-10T13:46:15;24.60;47.10
10911;DHT22;5508;49.150;11.030;2023-06-10T13:49:16;24.60;48.70
10911;DHT22;5508;49.150;11.030;2023-06-10T13:52:17;25.00;47.90
10911;DHT22;5508;49.150;11.030;2023-06-10T13:55:18;25.30;46.50
10911;DHT22;5508;49.150;11.030;2023-06-10T13:58:20;25.20;47.10
10911;DHT22;5508;49.150;11.030;2023-06-10T14:01:21;25.40;45.20
10911;DHT22;5508;49.150;11.030;2023-06-10T14:04:21;25.20;45.30
10911;DHT22;5508;49.150;11.030;2023-06-10T14:07:22;25.20;48.00
10911;DHT22;5508;49.150;11.030;2023-06-10T14:10:23;25.30;48.20
10911;DHT22;5508;49.150;11.030;2023-06-10T14:13:23;25.40;46.40
10911;DHT22;5508;49.150;11.030;2023-06-10T14:16:24;25.40;45.90
10911;DHT22;5508;49.150;11.030;2023-06-10T14:19:25;25.30;45.20
10911;DHT22;5508;49.150;11.030;2023-06-10T14:22:25;25.10;46.50
10911;DHT22;5508;49.150;11.030;2023-06-10T14:25:26;24.90;48.30
10911;DHT22;5508;49.150;11.030;2023-06-10T14:28:26;24.70;47.60
10911;DHT22;5508;49.150;11.030;2023-06-10T14:31:28;24.60;48.50
10911;DHT22;5508;49.150;11.030;2023-06-10T14:34:28;24.50;48.00
10911;DHT22;5508;49.150;11.030;2023-06-10T14:37:33;24.40;49.50
10911;DHT22;5508;49.150;11.030;2023-06-10T14:40:34;24.60;48.60
10911;DHT22;5508;49.150;11.030;2023-06-10T14:43:34;25.00;48.30
10911;DHT22;5508;49.150;11.030;2023-06-10T14:46:35;25.10;45.40
10911;DHT22;5508;49.150;11.030;2023-06-10T14:49:36;25.50;44.50
10911;DHT22;5508;49.150;11.030;2023-06-10T14:52:36;25.80;43.90
10911;DHT22;5508;49.150;11.030;2023-06-10T14:55:37;26.40;41.80
10911;DHT22;5508;49.150;11.030;2023-06-10T14:58:37;26.40;42.50
10911;DHT22;5508;49.150;11.030;2023-06-10T15:01:38;26.60;43.00
10911;DHT22;5508;49.150;11.030;2023-06-10T15:04:39;27.10;43.00
10911;DHT22;5508;49.150;11.030;2023-06-10T15:07:39;27.10;39.40
10911;DHT22;5508;49.150;11.030;2023-06-10T15:10:40;26.70;42.60
10911;DHT22;5508;49.150;11.030;2023-06-10T15:13:40;26.40;42.90
10911;DHT22;5508;49.150;11.030;2023-06-10T15:16:41;26.30;41.10
10911;DHT22;5508;49.150;11.030;2023-06-10T15:19:42;26.00;43.30
10911;DHT22;5508;49.150;11.030;2023-06-10T15:22:42;25.70;43.20
10911;DHT22;5508;49.150;11.030;2023-06-10T15:25:43;25.50;44.60
10911;DHT22;5508;49.150;11.030;2023-06-10T15:28:44;25.40;46.30
10911;DHT22;5508;49.150;11.030;2023-06-10T15:31:45;25.20;46.30
10911;DHT22;5508;49.150;11.030;2023-06-10T15:34:46;25.00;47.70
10911;DHT22;5508;49.150;11.030;2023-06-10T15:37:47;24.80;47.70
10911;DHT22;5508;49.150;11.030;2023-06-10T15:40:48;24.60;47.70
10911;DHT22;5508;49.150;11.030;2023-06-10T15:43:48;24.30;47.70
10911;DHT22;5508;49.150;11.030;2023-06-10T15:46:49;24.10;48.80
10911;DHT22;5508;49.150;11.030;2023-06-10T15:49:51;24.00;49.50
10911;DHT22;5508;49.150;11.030;2023-06-10T15:52:51;23.80;50.00
10911;DHT22;5508;49.150;11.030;2023-06-10T15:55:52;23.70;50.80
10911;DHT22;5508;49.150;11.030;2023-06-10T15:58:52;23.80;51.00
10911;DHT22;5508;49.150;11.030;2023-06-10T16:01:53;23.90;50.80
10911;DHT22;5508;49.150;11.030;2023-06-10T16:04:54;24.00;52.00
10911;DHT22;5508;49.150;11.030;2023-06-10T16:07:55;24.30;48.80
10911;DHT22;5508;49.150;11.030;2023-06-10T16:10:55;24.60;48.80
10911;DHT22;5508;49.150;11.030;2023-06-10T16:13:56;25.00;49.30
10911;DHT22;5508;49.150;11.030;2023-06-10T16:16:56;25.00;50.20
10911;DHT22;5508;49.150;11.030;2023-06-10T16:19:57;24.90;46.40
10911;DHT22;5508;49.150;11.030;2023-06-10T16:22:58;24.80;49.60
10911;DHT22;5508;49.150;11.030;2023-06-10T16:25:59;25.00;50.20
10911;DHT22;5508;49.150;11.030;2023-06-10T16:28:59;25.10;47.40
10911;DHT22;5508;49.150;11.030;2023-06-10T16:32:00;25.00;47.90
10911;DHT22;5508;49.150;11.030;2023-06-10T16:35:00;25.00;48.20
10911;DHT22;5508;49.150;11.030;2023-06-10T16:38:01;25.20;48.10
10911;DHT22;5508;49.150;11.030;2023-06-10T16:41:02;25.20;48.90
10911;DHT22;5508;49.150;11.030;2023-06-10T16:44:02;25.20;48.60
10911;DHT22;5508;49.150;11.030;2023-06-10T16:47:03;24.90;49.00
10911;DHT22;5508;49.150;11.030;2023-06-10T16:50:04;24.50;50.50
10911;DHT22;5508;49.150;11.030;2023-06-10T16:53:05;23.80;53.70
10911;DHT22;5508;49.150;11.030;2023-06-10T16:56:05;23.50;57.30
10911;DHT22;5508;49.150;11.030;2023-06-10T16:59:06;23.30;56.60
10911;DHT22;5508;49.150;11.030;2023-06-10T17:02:07;23.30;57.70
10911;DHT22;5508;49.150;11.030;2023-06-10T17:05:08;23.40;58.10
10911;DHT22;5508;49.150;11.030;2023-06-10T17:08:08;23.30;56.60
10911;DHT22;5508;49.150;11.030;2023-06-10T17:11:09;23.10;57.70
10911;DHT22;5508;49.150;11.030;2023-06-10T17:14:10;22.90;57.80
10911;DHT22;5508;49.150;11.030;2023-06-10T17:17:11;22.90;57.20
10911;DHT22;5508;49.150;11.030;2023-06-10T17:20:12;22.80;56.80
10911;DHT22;5508;49.150;11.030;2023-06-10T17:23:12;22.80;57.50
10911;DHT22;5508;49.150;11.030;2023-06-10T17:26:13;22.80;56.40
10911;DHT22;5508;49.150;11.030;2023-06-10T17:29:14;22.70;56.60
10911;DHT22;5508;49.150;11.030;2023-06-10T17:32:14;22.60;58.60
10911;DHT22;5508;49.150;11.030;2023-06-10T17:35:15;22.50;58.80
10911;DHT22;5508;49.150;11.030;2023-06-10T17:38:16;22.50;58.20
10911;DHT22;5508;49.150;11.030;2023-06-10T17:41:17;22.30;58.10
10911;DHT22;5508;49.150;11.030;2023-06-10T17:44:17;22.10;58.80
10911;DHT22;5508;49.150;11.030;2023-06-10T17:47:21;22.00;58.80
10911;DHT22;5508;49.150;11.030;2023-06-10T17:50:22;21.90;59.60
10911;DHT22;5508;49.150;11.030;2023-06-10T17:53:22;21.80;60.20
10911;DHT22;5508;49.150;11.030;2023-06-10T17:56:23;21.70;60.70
10911;DHT22;5508;49.150;11.030;2023-06-10T17:59:24;21.50;61.00
10911;DHT22;5508;49.150;11.030;2023-06-10T18:02:24;21.50;61.70
10911;DHT22;5508;49.150;11.030;2023-06-10T18:05:25;21.40;62.70
10911;DHT22;5508;49.150;11.030;2023-06-10T18:08:25;21.30;64.30
10911;DHT22;5508;49.150;11.030;2023-06-10T18:11:28;21.30;62.80
10911;DHT22;5508;49.150;11.030;2023-06-10T18:14:29;21.20;62.90
10911;DHT22;5508;49.150;11.030;2023-06-10T18:17:30;21.10;64.80
10911;DHT22;5508;49.150;11.030;2023-06-10T18:20:31;21.00;65.30
10911;DHT22;5508;49.150;11.030;2023-06-10T18:23:32;20.90;66.10
10911;DHT22;5508;49.150;11.030;2023-06-10T18:26:32;20.90;67.30
10911;DHT22;5508;49.150;11.030;2023-06-10T18:29:33;20.80;66.80
10911;DHT22;5508;49.150;11.030;2023-06-10T18:32:33;20.80;67.60
10911;DHT22;5508;49.150;11.030;2023-06-10T18:35:34;20.70;68.60
10911;DHT22;5508;49.150;11.030;2023-06-10T18:38:34;20.70;68.30
10911;DHT22;5508;49.150;11.030;2023-06-10T18:41:35;20.70;69.20
10911;DHT22;5508;49.150;11.030;2023-06-10T18:44:36;20.60;69.60
10911;DHT22;5508;49.150;11.030;2023-06-10T18:47:36;20.50;69.80
10911;DHT22;5508;49.150;11.030;2023-06-10T18:50:37;20.50;70.30
10911;DHT22;5508;49.150;11.030;2023-06-10T18:53:37;20.40;71.50
10911;DHT22;5508;49.150;11.030;2023-06-10T18:56:38;20.40;70.90
10911;DHT22;5508;49.150;11.030;2023-06-10T18:59:41;20.40;71.30
10911;DHT22;5508;49.150;11.030;2023-06-10T19:02:41;20.30;71.90
10911;DHT22;5508;49.150;11.030;2023-06-10T19:05:42;20.20;73.50
10911;DHT22;5508;49.150;11.030;2023-06-10T19:08:43;20.10;73.90
10911;DHT22;5508;49.150;11.030;2023-06-10T19:11:43;19.90;74.70
10911;DHT22;5508;49.150;11.030;2023-06-10T19:14:45;19.80;75.30
10911;DHT22;5508;49.150;11.030;2023-06-10T19:17:45;19.70;76.40